Time;durP1;ratioP1;P1;durP2;ratioP2;P2;SDS_P1;SDS_P2;PMS_P1;PMS_P2;Temp;Humidity;BMP_temperature;BMP_pressure;BME280_temperature;BME280_humidity;BME280_pressure;Samples;Min_cycle;Max_cycle;Signal;HPM_P1;HPM_P2
2022/03/19 00:01:07;;;;;;;;;;;2.60;59.80;;;;;;5067749;27;87282;-48
2022/03/19 00:03:33;;;;;;;;;;;2.60;59.60;;;;;;5066954;27;88643;-48
2022/03/19 00:05:59;;;;;;;;;;;2.60;59.60;;;;;;5067296;27;87029;-48
2022/03/19 00:08:25;;;;;;;;;;;2.50;59.70;;;;;;5067585;27;87122;-49
2022/03/19 00:10:52;;;;;;;;;;;2.50;59.70;;;;;;5070062;27;87458;-48
2022/03/19 00:13:17;;;;;;;;;;;2.50;59.70;;;;;;5067695;27;87086;-48
2022/03/19 00:15:44;;;;;;;;;;;2.50;59.60;;;;;;5066809;27;87800;-48
2022/03/19 00:18:10;;;;;;;;;;;2.50;59.80;;;;;;5066996;27;86836;-48
2022/03/19 00:20:36;;;;;;;;;;;2.50;59.70;;;;;;5066592;27;87867;-48
2022/03/19 00:23:02;;;;;;;;;;;2.40;59.80;;;;;;5066693;27;87802;-48
2022/03/19 00:25:28;;;;;;;;;;;2.40;59.70;;;;;;5067103;27;86820;-49
2022/03/19 00:27:54;;;;;;;;;;;2.40;59.70;;;;;;5067022;27;87024;-48
2022/03/19 00:30:20;;;;;;;;;;;2.40;59.80;;;;;;5065931;27;87113;-48
2022/03/19 00:32:46;;;;;;;;;;;2.40;59.80;;;;;;5069891;27;86946;-48
2022/03/19 00:35:12;;;;;;;;;;;2.40;59.80;;;;;;5066598;27;88453;-49
2022/03/19 00:37:46;;;;;;;;;;;2.40;59.80;;;;;;5067396;27;86310;-48
2022/03/19 00:40:13;;;;;;;;;;;2.40;59.80;;;;;;5066759;27;87250;-49
2022/03/19 00:42:39;;;;;;;;;;;2.40;59.90;;;;;;5066405;27;88722;-48
2022/03/19 00:45:05;;;;;;;;;;;2.30;59.80;;;;;;5065854;27;87838;-48
2022/03/19 00:47:31;;;;;;;;;;;2.30;59.80;;;;;;5066705;27;88690;-48
2022/03/19 00:49:57;;;;;;;;;;;2.30;59.70;;;;;;5066352;27;88380;-48
2022/03/19 00:52:22;;;;;;;;;;;2.30;59.80;;;;;;5066707;27;87046;-48
2022/03/19 00:54:48;;;;;;;;;;;2.30;59.80;;;;;;5069459;27;86855;-48
2022/03/19 00:57:14;;;;;;;;;;;2.30;60.50;;;;;;5065885;27;87103;-48
2022/03/19 00:59:39;;;;;;;;;;;2.20;59.90;;;;;;5066539;27;87737;-48
2022/03/19 01:02:05;;;;;;;;;;;2.30;60.00;;;;;;5066755;27;86859;-48
2022/03/19 01:04:31;;;;;;;;;;;2.20;59.90;;;;;;5066389;27;86862;-47
2022/03/19 01:06:57;;;;;;;;;;;2.20;59.80;;;;;;5066509;27;87961;-48
2022/03/19 01:09:22;;;;;;;;;;;2.20;60.00;;;;;;5066085;27;89610;-48
2022/03/19 01:11:48;;;;;;;;;;;2.20;59.90;;;;;;5070167;27;86836;-48
2022/03/19 01:14:14;;;;;;;;;;;2.20;59.90;;;;;;5070108;27;87964;-48
2022/03/19 01:16:40;;;;;;;;;;;2.20;59.90;;;;;;5072697;27;87402;-48
2022/03/19 01:19:06;;;;;;;;;;;2.20;59.90;;;;;;5070108;27;88027;-49
2022/03/19 01:21:31;;;;;;;;;;;2.10;59.80;;;;;;5069806;27;86856;-47
2022/03/19 01:23:57;;;;;;;;;;;2.10;60.10;;;;;;5069910;27;86818;-48
2022/03/19 01:26:24;;;;;;;;;;;2.10;59.90;;;;;;5070448;27;88181;-47
2022/03/19 01:28:50;;;;;;;;;;;2.10;59.90;;;;;;5069325;27;88665;-48
2022/03/19 01:31:16;;;;;;;;;;;2.10;59.90;;;;;;5069717;27;87007;-48
2022/03/19 01:33:41;;;;;;;;;;;2.00;60.00;;;;;;5069230;27;87885;-48
2022/03/19 01:36:07;;;;;;;;;;;2.10;60.00;;;;;;5072507;27;87519;-48
2022/03/19 01:38:33;;;;;;;;;;;2.10;59.80;;;;;;5069720;27;87857;-48
2022/03/19 01:40:59;;;;;;;;;;;2.10;59.90;;;;;;5069324;27;88312;-47
2022/03/19 01:43:25;;;;;;;;;;;2.00;59.90;;;;;;5069684;27;87346;-48
2022/03/19 01:45:53;;;;;;;;;;;2.00;59.90;;;;;;5069430;27;86849;-48
2022/03/19 01:48:21;;;;;;;;;;;2.00;60.60;;;;;;5069138;27;87355;-48
2022/03/19 01:50:46;;;;;;;;;;;2.00;59.90;;;;;;5070088;27;86426;-48
2022/03/19 01:53:12;;;;;;;;;;;2.00;60.00;;;;;;5069770;27;86819;-48
2022/03/19 01:55:37;;;;;;;;;;;2.00;60.00;;;;;;5069283;27;87595;-47
2022/03/19 01:58:03;;;;;;;;;;;1.90;60.00;;;;;;5071816;27;87851;-48
2022/03/19 02:00:29;;;;;;;;;;;2.00;60.10;;;;;;5069293;27;87542;-48
2022/03/19 02:02:56;;;;;;;;;;;1.90;60.00;;;;;;5069336;27;86848;-47
2022/03/19 02:05:23;;;;;;;;;;;1.90;60.10;;;;;;5069287;27;87787;-48
2022/03/19 02:07:49;;;;;;;;;;;1.90;60.00;;;;;;5068707;27;88512;-47
2022/03/19 02:10:17;;;;;;;;;;;1.90;60.00;;;;;;5069485;27;86878;-48
2022/03/19 02:12:44;;;;;;;;;;;1.90;60.00;;;;;;5069075;27;88034;-48
2022/03/19 02:15:11;;;;;;;;;;;1.80;60.10;;;;;;5069265;27;87845;-48
2022/03/19 02:17:37;;;;;;;;;;;1.80;60.20;;;;;;5069201;27;86962;-47
2022/03/19 02:20:04;;;;;;;;;;;1.80;60.20;;;;;;5071180;27;87455;-48
2022/03/19 02:22:29;;;;;;;;;;;1.80;60.10;;;;;;5068348;27;88093;-48
2022/03/19 02:27:40;;;;;;;;;;;1.80;60.20;;;;;;5068824;27;86936;-47
2022/03/19 02:30:07;;;;;;;;;;;1.80;60.10;;;;;;5068867;27;86853;-48
2022/03/19 02:32:34;;;;;;;;;;;1.70;60.10;;;;;;5069216;27;87106;-48
2022/03/19 02:34:59;;;;;;;;;;;1.70;60.20;;;;;;5068452;27;87583;-48
2022/03/19 02:37:25;;;;;;;;;;;1.70;60.30;;;;;;5068726;27;86926;-48
2022/03/19 02:39:51;;;;;;;;;;;1.70;60.00;;;;;;5069197;27;87955;-48
2022/03/19 02:42:17;;;;;;;;;;;1.70;60.00;;;;;;5071292;27;88761;-47
2022/03/19 02:44:43;;;;;;;;;;;1.70;60.10;;;;;;5068523;27;87920;-47
2022/03/19 02:47:10;;;;;;;;;;;1.70;60.00;;;;;;5067530;27;89809;-48
2022/03/19 02:49:35;;;;;;;;;;;1.70;60.10;;;;;;5068651;27;87099;-48
2022/03/19 02:52:01;;;;;;;;;;;1.70;60.10;;;;;;5067967;27;86904;-48
2022/03/19 02:54:29;;;;;;;;;;;1.60;60.10;;;;;;5068386;27;87517;-48
2022/03/19 02:56:55;;;;;;;;;;;1.60;60.00;;;;;;5068540;27;86839;-48
2022/03/19 02:59:22;;;;;;;;;;;1.60;60.10;;;;;;5068355;27;87917;-48
2022/03/19 03:01:52;;;;;;;;;;;1.60;60.10;;;;;;5067956;27;88551;-48
2022/03/19 03:04:18;;;;;;;;;;;1.60;60.10;;;;;;5072112;27;86160;-48
2022/03/19 03:06:45;;;;;;;;;;;1.60;60.10;;;;;;5067936;27;87500;-49
2022/03/19 03:09:11;;;;;;;;;;;1.60;60.10;;;;;;5068544;27;86831;-48
2022/03/19 03:11:38;;;;;;;;;;;1.60;60.10;;;;;;5067729;27;88018;-48
2022/03/19 03:14:04;;;;;;;;;;;1.50;60.10;;;;;;5067768;27;88490;-47
2022/03/19 03:16:31;;;;;;;;;;;1.50;60.00;;;;;;5068439;27;87109;-48
2022/03/19 03:19:00;;;;;;;;;;;1.50;60.10;;;;;;5068008;27;87791;-47
2022/03/19 03:21:27;;;;;;;;;;;1.50;60.10;;;;;;5067717;27;88477;-47
2022/03/19 03:23:55;;;;;;;;;;;1.50;60.20;;;;;;5067970;27;86732;-48
2022/03/19 03:26:21;;;;;;;;;;;1.50;60.20;;;;;;5070567;27;87877;-48
2022/03/19 03:28:47;;;;;;;;;;;1.40;60.30;;;;;;5068428;27;86164;-48
2022/03/19 03:31:13;;;;;;;;;;;1.40;60.10;;;;;;5068227;27;86947;-48
2022/03/19 03:33:39;;;;;;;;;;;1.40;60.10;;;;;;5066859;27;88721;-47
2022/03/19 03:36:05;;;;;;;;;;;1.40;60.30;;;;;;5067463;27;87764;-48
2022/03/19 03:38:33;;;;;;;;;;;1.40;60.20;;;;;;5067697;27;88856;-48
2022/03/19 03:40:59;;;;;;;;;;;1.40;60.20;;;;;;5067518;27;87656;-47
2022/03/19 03:43:24;;;;;;;;;;;1.40;60.10;;;;;;5068092;27;86769;-47
2022/03/19 03:45:50;;;;;;;;;;;1.40;60.20;;;;;;5069897;27;87867;-47
2022/03/19 03:48:16;;;;;;;;;;;1.30;60.20;;;;;;5067822;27;86851;-47
2022/03/19 03:50:43;;;;;;;;;;;1.30;60.30;;;;;;5067727;27;87728;-48
2022/03/19 03:53:09;;;;;;;;;;;1.30;60.20;;;;;;5067980;27;86729;-48
2022/03/19 03:55:36;;;;;;;;;;;1.30;60.10;;;;;;5067438;27;86909;-48
2022/03/19 03:58:03;;;;;;;;;;;1.30;60.20;;;;;;5067510;27;87942;-48
2022/03/19 04:00:30;;;;;;;;;;;1.30;60.20;;;;;;5066261;27;89404;-48
2022/03/19 04:02:56;;;;;;;;;;;1.20;60.30;;;;;;5067404;27;86997;-47
2022/03/19 04:05:23;;;;;;;;;;;1.20;60.20;;;;;;5067387;27;87111;-48
2022/03/19 04:07:50;;;;;;;;;;;1.30;60.30;;;;;;5069911;27;88568;-48
2022/03/19 04:10:16;;;;;;;;;;;1.20;60.30;;;;;;5067018;27;86951;-48
2022/03/19 04:12:42;;;;;;;;;;;1.20;60.10;;;;;;5067286;27;87465;-48
2022/03/19 04:15:08;;;;;;;;;;;1.20;60.30;;;;;;5067231;27;86918;-48
2022/03/19 04:17:34;;;;;;;;;;;1.20;60.30;;;;;;5067836;27;86792;-48
2022/03/19 04:19:59;;;;;;;;;;;1.20;60.40;;;;;;5066773;27;88670;-47
2022/03/19 04:22:45;;;;;;;;;;;1.10;60.30;;;;;;5067169;27;86844;-48
2022/03/19 04:25:15;;;;;;;;;;;1.10;60.30;;;;;;5065788;27;87902;-48
2022/03/19 04:27:43;;;;;;;;;;;1.10;60.20;;;;;;5066634;27;87568;-48
2022/03/19 04:30:13;;;;;;;;;;;1.10;60.20;;;;;;5070307;27;86860;-47
2022/03/19 04:32:43;;;;;;;;;;;1.10;61.00;;;;;;5065854;27;87475;-47
2022/03/19 04:38:01;;;;;;;;;;;1.10;60.40;;;;;;5067194;27;87268;-48
2022/03/19 04:40:27;;;;;;;;;;;1.10;60.20;;;;;;5066514;27;87651;-47
2022/03/19 04:42:54;;;;;;;;;;;1.00;60.30;;;;;;5067381;27;86190;-47
2022/03/19 04:45:19;;;;;;;;;;;1.00;60.30;;;;;;5065341;27;86851;-48
2022/03/19 04:47:45;;;;;;;;;;;1.00;60.20;;;;;;5066472;27;88640;-47
2022/03/19 04:50:11;;;;;;;;;;;1.00;60.30;;;;;;5066069;27;87870;-48
2022/03/19 04:52:37;;;;;;;;;;;1.00;60.30;;;;;;5069376;27;88797;-47
2022/03/19 04:55:02;;;;;;;;;;;1.00;60.30;;;;;;5066941;27;86900;-48
2022/03/19 04:57:28;;;;;;;;;;;1.00;60.20;;;;;;5066676;27;87724;-47
2022/03/19 04:59:54;;;;;;;;;;;0.90;60.40;;;;;;5066520;27;87498;-48
2022/03/19 05:02:24;;;;;;;;;;;0.90;60.40;;;;;;5066923;27;86886;-47
2022/03/19 05:04:52;;;;;;;;;;;0.80;60.40;;;;;;5066551;27;88259;-47
2022/03/19 05:07:21;;;;;;;;;;;0.80;60.50;;;;;;5066358;27;87283;-47
2022/03/19 05:12:33;;;;;;;;;;;0.80;60.50;;;;;;5066721;27;86825;-47
2022/03/19 05:14:59;;;;;;;;;;;0.80;60.50;;;;;;5068380;27;88398;-47
2022/03/19 05:17:25;;;;;;;;;;;0.80;60.40;;;;;;5066331;27;88716;-48
2022/03/19 05:19:53;;;;;;;;;;;0.80;60.60;;;;;;5066031;27;88514;-47
2022/03/19 05:22:19;;;;;;;;;;;0.80;60.40;;;;;;5066661;27;86909;-47
2022/03/19 05:24:45;;;;;;;;;;;0.80;60.40;;;;;;5066386;27;87800;-47
2022/03/19 05:27:12;;;;;;;;;;;0.80;60.40;;;;;;5065975;27;88515;-48
2022/03/19 05:29:38;;;;;;;;;;;0.80;60.80;;;;;;5066267;27;86955;-47
2022/03/19 05:32:07;;;;;;;;;;;0.80;60.30;;;;;;5066754;27;87440;-47
2022/03/19 05:34:34;;;;;;;;;;;0.80;60.50;;;;;;5065889;27;87460;-48
2022/03/19 05:37:00;;;;;;;;;;;0.80;60.30;;;;;;5068935;27;86895;-47
2022/03/19 05:39:26;;;;;;;;;;;0.70;60.50;;;;;;5065000;27;89591;-48
2022/03/19 05:41:52;;;;;;;;;;;0.70;60.50;;;;;;5066072;27;86874;-48
2022/03/19 05:44:18;;;;;;;;;;;0.70;60.50;;;;;;5066426;27;86825;-48
2022/03/19 05:46:44;;;;;;;;;;;0.70;60.50;;;;;;5065419;27;87640;-47
2022/03/19 05:49:09;;;;;;;;;;;0.70;60.50;;;;;;5066267;27;87121;-48
2022/03/19 05:51:35;;;;;;;;;;;0.70;60.20;;;;;;5066271;27;86827;-48
2022/03/19 05:54:01;;;;;;;;;;;0.70;60.40;;;;;;5065381;27;88376;-49
2022/03/19 05:56:27;;;;;;;;;;;0.70;60.40;;;;;;5070839;27;86134;-48
2022/03/19 05:58:52;;;;;;;;;;;0.70;60.30;;;;;;5068799;27;87768;-51
2022/03/19 06:01:18;;;;;;;;;;;0.70;60.40;;;;;;5069105;27;86853;-49
2022/03/19 06:03:43;;;;;;;;;;;0.70;60.50;;;;;;5068297;27;87967;-48
2022/03/19 06:06:09;;;;;;;;;;;0.70;60.50;;;;;;5068786;27;87107;-49
2022/03/19 06:08:35;;;;;;;;;;;0.70;60.50;;;;;;5069390;27;86917;-52
2022/03/19 06:11:01;;;;;;;;;;;0.70;60.30;;;;;;5069521;27;86923;-51
2022/03/19 06:13:26;;;;;;;;;;;0.70;60.30;;;;;;5068829;27;88349;-47
2022/03/19 06:15:52;;;;;;;;;;;0.70;60.50;;;;;;5068843;27;86881;-49
2022/03/19 06:18:18;;;;;;;;;;;0.60;60.40;;;;;;5071534;27;86852;-51
2022/03/19 06:20:43;;;;;;;;;;;0.70;60.40;;;;;;5069416;27;86405;-49
2022/03/19 06:23:09;;;;;;;;;;;0.70;60.40;;;;;;5068736;27;86901;-48
2022/03/19 06:25:35;;;;;;;;;;;0.70;60.50;;;;;;5068697;27;87916;-49
2022/03/19 06:28:01;;;;;;;;;;;0.70;60.40;;;;;;5067790;27;87799;-49
2022/03/19 06:30:27;;;;;;;;;;;0.60;60.30;;;;;;5068739;27;88165;-48
2022/03/19 06:32:52;;;;;;;;;;;0.70;60.50;;;;;;5068289;27;87493;-48
2022/03/19 06:37:19;;;;;;;;;;;0.70;60.30;;;;;;5068466;27;86888;-47
2022/03/19 06:38:03;;;;;;;;;;;0.70;60.30;;;;;;5068406;27;87401;-48
2022/03/19 06:40:29;;;;;;;;;;;0.70;60.40;;;;;;5070873;27;87661;-47
2022/03/19 06:42:54;;;;;;;;;;;0.70;60.40;;;;;;5068305;27;87835;-49
2022/03/19 06:45:20;;;;;;;;;;;0.70;60.50;;;;;;5068030;27;87643;-51
2022/03/19 06:47:46;;;;;;;;;;;0.70;60.50;;;;;;5068421;27;87124;-48
2022/03/19 06:50:11;;;;;;;;;;;0.60;60.50;;;;;;5068245;27;86924;-49
2022/03/19 06:52:37;;;;;;;;;;;0.60;60.60;;;;;;5067179;27;88327;-48
2022/03/19 06:55:03;;;;;;;;;;;0.70;60.50;;;;;;5068374;27;86848;-49
2022/03/19 06:57:29;;;;;;;;;;;0.70;60.50;;;;;;5067363;27;87329;-48
2022/03/19 06:59:54;;;;;;;;;;;0.60;60.50;;;;;;5067665;27;88524;-49
2022/03/19 07:02:20;;;;;;;;;;;0.70;60.50;;;;;;5071051;27;86885;-48
2022/03/19 07:04:46;;;;;;;;;;;0.70;60.50;;;;;;5067845;27;87480;-51
2022/03/19 07:07:11;;;;;;;;;;;0.70;60.40;;;;;;5066839;27;86754;-48
2022/03/19 07:09:37;;;;;;;;;;;0.70;60.50;;;;;;5068739;27;86683;-48
2022/03/19 07:12:04;;;;;;;;;;;0.70;60.50;;;;;;5067506;27;88734;-50
2022/03/19 07:14:29;;;;;;;;;;;0.70;60.50;;;;;;5067644;27;86875;-49
2022/03/19 07:16:56;;;;;;;;;;;0.70;60.50;;;;;;5067347;27;87838;-48
2022/03/19 07:19:21;;;;;;;;;;;0.70;60.50;;;;;;5067233;27;87710;-49
2022/03/19 07:21:47;;;;;;;;;;;0.80;60.50;;;;;;5067947;27;86934;-49
2022/03/19 07:24:12;;;;;;;;;;;0.70;61.20;;;;;;5070128;27;87905;-48
2022/03/19 07:26:38;;;;;;;;;;;0.60;60.70;;;;;;5066831;27;86893;-48
2022/03/19 07:29:04;;;;;;;;;;;0.70;60.60;;;;;;5067470;27;87969;-49
2022/03/19 07:31:30;;;;;;;;;;;0.70;60.60;;;;;;5067087;27;88393;-50
2022/03/19 07:33:55;;;;;;;;;;;0.70;60.40;;;;;;5068553;27;86473;-50
2022/03/19 07:36:21;;;;;;;;;;;0.60;60.20;;;;;;5067334;27;86866;-48
2022/03/19 07:38:47;;;;;;;;;;;0.60;59.90;;;;;;5067271;27;86935;-48
2022/03/19 07:43:57;;;;;;;;;;;0.60;59.80;;;;;;5069784;27;87504;-48
2022/03/19 07:46:25;;;;;;;;;;;0.60;59.50;;;;;;5066843;27;86918;-49
2022/03/19 07:48:50;;;;;;;;;;;0.60;59.50;;;;;;5067228;27;87988;-51
2022/03/19 07:51:16;;;;;;;;;;;0.60;59.30;;;;;;5066982;27;86947;-49
2022/03/19 07:53:42;;;;;;;;;;;0.70;59.10;;;;;;5049182;27;87003;-48
2022/03/19 07:56:07;;;;;;;;;;;0.60;59.20;;;;;;5067106;27;88124;-49
2022/03/19 07:58:33;;;;;;;;;;;0.60;59.20;;;;;;5067500;27;86227;-49
2022/03/19 08:00:58;;;;;;;;;;;0.60;59.20;;;;;;5066937;27;86952;-50
2022/03/19 08:03:24;;;;;;;;;;;0.60;59.10;;;;;;5067048;27;86937;-48
2022/03/19 08:05:50;;;;;;;;;;;0.60;59.00;;;;;;5068733;27;88682;-51
2022/03/19 08:08:15;;;;;;;;;;;0.60;59.00;;;;;;5067193;27;87649;-49
2022/03/19 08:10:41;;;;;;;;;;;0.60;59.00;;;;;;5066499;27;88738;-48
2022/03/19 08:13:08;;;;;;;;;;;0.60;58.70;;;;;;5066795;27;86922;-49
2022/03/19 08:15:34;;;;;;;;;;;0.60;58.60;;;;;;5066859;27;88098;-49
2022/03/19 08:18:00;;;;;;;;;;;0.60;58.70;;;;;;5066013;27;88432;-48
2022/03/19 08:20:27;;;;;;;;;;;0.60;58.70;;;;;;5066874;27;87037;-48
2022/03/19 08:22:52;;;;;;;;;;;0.60;58.60;;;;;;5067551;27;86771;-48
2022/03/19 08:25:18;;;;;;;;;;;0.60;58.50;;;;;;5066302;27;88371;-49
2022/03/19 08:27:45;;;;;;;;;;;0.60;58.40;;;;;;5069483;27;86856;-48
2022/03/19 08:30:11;;;;;;;;;;;0.60;58.70;;;;;;5065449;27;89495;-50
2022/03/19 08:32:37;;;;;;;;;;;0.60;58.60;;;;;;5066761;27;86929;-48
2022/03/19 08:35:02;;;;;;;;;;;0.40;59.40;;;;;;5066342;27;88090;-49
2022/03/19 08:37:28;;;;;;;;;;;0.50;59.10;;;;;;5065996;27;88402;-51
2022/03/19 08:42:38;;;;;;;;;;;0.50;59.20;;;;;;5063422;27;86939;-48
2022/03/19 08:45:04;;;;;;;;;;;0.50;59.10;;;;;;5065664;27;88490;-51
2022/03/19 08:47:30;;;;;;;;;;;0.60;59.10;;;;;;5066862;27;86126;-48
2022/03/19 08:49:56;;;;;;;;;;;0.60;58.80;;;;;;5069079;27;86744;-52
2022/03/19 08:52:21;;;;;;;;;;;0.50;59.00;;;;;;5066278;27;86848;-49
2022/03/19 08:54:47;;;;;;;;;;;0.50;59.40;;;;;;5065555;27;87888;-50
2022/03/19 08:57:14;;;;;;;;;;;0.60;58.60;;;;;;5065543;27;86975;-49
2022/03/19 08:59:40;;;;;;;;;;;0.60;58.80;;;;;;5066024;27;86873;-50
2022/03/19 09:02:05;;;;;;;;;;;0.60;58.90;;;;;;5066376;27;86863;-50
2022/03/19 09:04:32;;;;;;;;;;;0.60;58.70;;;;;;5065830;27;88523;-49
2022/03/19 09:06:58;;;;;;;;;;;0.60;58.60;;;;;;5066001;27;86885;-48
2022/03/19 09:09:23;;;;;;;;;;;0.60;58.40;;;;;;5066017;27;87779;-48
2022/03/19 09:11:49;;;;;;;;;;;0.60;58.60;;;;;;5068884;27;87756;-50
2022/03/19 09:14:16;;;;;;;;;;;0.60;58.40;;;;;;5066315;27;86731;-48
2022/03/19 09:16:42;;;;;;;;;;;0.60;58.90;;;;;;5065446;27;88132;-48
2022/03/19 09:19:08;;;;;;;;;;;0.60;58.70;;;;;;5065034;27;88030;-49
2022/03/19 09:21:33;;;;;;;;;;;0.60;58.80;;;;;;5066179;27;87529;-48
2022/03/19 09:23:59;;;;;;;;;;;0.60;58.70;;;;;;5065759;27;87942;-49
2022/03/19 09:26:25;;;;;;;;;;;0.60;58.60;;;;;;5065797;27;86932;-52
2022/03/19 09:28:51;;;;;;;;;;;0.60;58.90;;;;;;5065736;27;86946;-50
2022/03/19 09:31:17;;;;;;;;;;;0.70;58.90;;;;;;5067443;27;88533;-48
2022/03/19 09:33:46;;;;;;;;;;;0.60;58.40;;;;;;5072519;27;86863;-51
2022/03/19 09:36:12;;;;;;;;;;;0.60;58.60;;;;;;5069456;27;87570;-48
2022/03/19 09:38:39;;;;;;;;;;;0.60;59.00;;;;;;5069222;27;86865;-51
2022/03/19 09:41:06;;;;;;;;;;;0.60;59.10;;;;;;5069412;27;87784;-49
2022/03/19 09:43:32;;;;;;;;;;;0.60;59.80;;;;;;5068382;27;88202;-49
2022/03/19 09:45:57;;;;;;;;;;;0.60;58.90;;;;;;5068402;27;86980;-48
2022/03/19 09:48:23;;;;;;;;;;;0.60;58.90;;;;;;5069191;27;87131;-49
2022/03/19 09:50:49;;;;;;;;;;;0.70;58.80;;;;;;5068480;27;88471;-49
2022/03/19 09:53:17;;;;;;;;;;;0.70;59.00;;;;;;5072271;27;87138;-49
2022/03/19 09:55:43;;;;;;;;;;;0.70;58.50;;;;;;5069060;27;87368;-50
2022/03/19 09:58:09;;;;;;;;;;;0.80;58.70;;;;;;5068850;27;86956;-49
2022/03/19 10:00:36;;;;;;;;;;;0.80;58.70;;;;;;5069407;27;87044;-48
2022/03/19 10:03:03;;;;;;;;;;;0.80;58.70;;;;;;5068438;27;87432;-48
2022/03/19 10:10:59;;;;;;;;;;;0.90;58.40;;;;;;5065594;27;87361;-49
2022/03/19 10:13:26;;;;;;;;;;;0.90;58.40;;;;;;5069102;27;87183;-49
2022/03/19 10:15:52;;;;;;;;;;;0.90;58.20;;;;;;5071155;27;86947;-49
2022/03/19 10:18:17;;;;;;;;;;;1.00;58.80;;;;;;5068928;27;86843;-49
2022/03/19 10:20:44;;;;;;;;;;;1.00;58.70;;;;;;5068654;27;86959;-49
2022/03/19 10:23:09;;;;;;;;;;;1.00;58.20;;;;;;5068362;27;86830;-49
2022/03/19 10:25:35;;;;;;;;;;;1.00;58.60;;;;;;5069446;27;86117;-49
2022/03/19 10:28:02;;;;;;;;;;;1.00;58.40;;;;;;5068576;27;87266;-49
2022/03/19 10:30:34;;;;;;;;;;;1.00;58.40;;;;;;5068222;27;87525;-49
2022/03/19 10:33:00;;;;;;;;;;;1.00;58.50;;;;;;5068075;27;87855;-49
2022/03/19 10:35:33;;;;;;;;;;;1.00;58.60;;;;;;5068214;27;88739;-48
2022/03/19 10:37:59;;;;;;;;;;;1.00;58.90;;;;;;5070658;27;89139;-49
2022/03/19 10:40:39;;;;;;;;;;;1.00;58.20;;;;;;5068200;27;87887;-48
2022/03/19 10:43:05;;;;;;;;;;;1.10;58.20;;;;;;5067833;27;88977;-48
2022/03/19 10:45:31;;;;;;;;;;;1.10;58.60;;;;;;5068116;27;87079;-49
2022/03/19 10:47:59;;;;;;;;;;;1.10;58.60;;;;;;5067980;27;87181;-50
2022/03/19 10:50:25;;;;;;;;;;;1.10;58.20;;;;;;5068269;27;87970;-50
2022/03/19 10:52:52;;;;;;;;;;;1.20;58.50;;;;;;5067991;27;86879;-51
2022/03/19 10:55:18;;;;;;;;;;;1.20;58.50;;;;;;5068016;27;88147;-49
2022/03/19 10:57:44;;;;;;;;;;;1.20;58.50;;;;;;5067216;27;88541;-49
2022/03/19 11:00:10;;;;;;;;;;;1.20;58.90;;;;;;5071158;27;86945;-48
2022/03/19 11:02:40;;;;;;;;;;;1.20;58.90;;;;;;5067582;27;86920;-49
2022/03/19 11:05:07;;;;;;;;;;;1.30;58.70;;;;;;5067863;27;87047;-50
2022/03/19 11:07:33;;;;;;;;;;;1.30;58.80;;;;;;5067760;27;86874;-51
2022/03/19 11:09:59;;;;;;;;;;;1.30;59.00;;;;;;5067383;27;88446;-49
2022/03/19 11:12:27;;;;;;;;;;;1.30;58.20;;;;;;5068097;27;86866;-52
2022/03/19 11:14:56;;;;;;;;;;;1.30;58.60;;;;;;5068480;27;86109;-49
2022/03/19 11:17:36;;;;;;;;;;;1.30;59.00;;;;;;5067191;27;88577;-52
2022/03/19 11:20:06;;;;;;;;;;;1.30;59.20;;;;;;5067688;27;86909;-48
2022/03/19 11:22:39;;;;;;;;;;;1.30;59.40;;;;;;5069491;27;88270;-49
2022/03/19 11:25:16;;;;;;;;;;;1.40;58.60;;;;;;5067651;27;86914;-50
2022/03/19 11:27:44;;;;;;;;;;;1.40;57.90;;;;;;5067516;27;88073;-48
2022/03/19 11:30:26;;;;;;;;;;;1.40;58.40;;;;;;5067407;27;87252;-48
2022/03/19 11:33:02;;;;;;;;;;;1.40;58.70;;;;;;5067719;27;87249;-49
2022/03/19 11:35:28;;;;;;;;;;;1.40;58.90;;;;;;5067630;27;87959;-49
2022/03/19 11:38:04;;;;;;;;;;;1.50;59.00;;;;;;5066988;27;88467;-50
2022/03/19 11:40:32;;;;;;;;;;;1.50;58.60;;;;;;5067731;27;86130;-51
2022/03/19 11:43:01;;;;;;;;;;;1.50;58.90;;;;;;5067422;27;87371;-49
2022/03/19 11:45:27;;;;;;;;;;;1.50;58.80;;;;;;5069834;27;88459;-52
2022/03/19 11:47:52;;;;;;;;;;;1.60;58.80;;;;;;5066997;27;88115;-50
2022/03/19 11:50:19;;;;;;;;;;;1.60;58.80;;;;;;5066879;27;88613;-49
2022/03/19 11:52:48;;;;;;;;;;;1.60;58.90;;;;;;5066769;27;86925;-49
2022/03/19 11:55:17;;;;;;;;;;;1.60;58.90;;;;;;5067120;27;87957;-48
2022/03/19 11:57:45;;;;;;;;;;;1.60;58.30;;;;;;5066538;27;88645;-51
2022/03/19 12:00:13;;;;;;;;;;;1.60;58.70;;;;;;5067071;27;86788;-49
2022/03/19 12:02:58;;;;;;;;;;;1.70;58.80;;;;;;5067479;27;87202;-50
2022/03/19 12:05:26;;;;;;;;;;;1.70;58.90;;;;;;5070350;27;86527;-48
2022/03/19 12:07:54;;;;;;;;;;;1.70;58.80;;;;;;5067242;27;86793;-50
2022/03/19 12:10:24;;;;;;;;;;;1.70;58.80;;;;;;5066715;27;87303;-48
2022/03/19 12:12:50;;;;;;;;;;;1.70;58.60;;;;;;5066136;27;87864;-51
2022/03/19 12:15:42;;;;;;;;;;;1.70;58.40;;;;;;5066914;27;88460;-49
2022/03/19 12:18:27;;;;;;;;;;;1.80;59.00;;;;;;5062012;27;88816;-52
2022/03/19 12:20:57;;;;;;;;;;;1.80;58.40;;;;;;5066819;27;86894;-52
2022/03/19 12:23:23;;;;;;;;;;;1.80;58.70;;;;;;5066517;27;87928;-50
2022/03/19 12:25:51;;;;;;;;;;;1.80;58.50;;;;;;5066118;27;88408;-51
2022/03/19 12:28:17;;;;;;;;;;;1.80;58.40;;;;;;5069510;27;86902;-51
2022/03/19 12:30:43;;;;;;;;;;;1.80;58.40;;;;;;5066682;27;86955;-48
2022/03/19 12:33:09;;;;;;;;;;;1.90;57.40;;;;;;5066661;27;86822;-50
2022/03/19 12:35:34;;;;;;;;;;;1.90;57.50;;;;;;5066831;27;86924;-50
2022/03/19 12:38:00;;;;;;;;;;;1.90;57.70;;;;;;5065215;27;89358;-49
2022/03/19 12:43:14;;;;;;;;;;;1.90;58.40;;;;;;5063494;27;86809;-48
2022/03/19 12:45:46;;;;;;;;;;;1.90;58.60;;;;;;5066024;27;87496;-49
2022/03/19 12:48:19;;;;;;;;;;;2.00;57.80;;;;;;5066203;27;86788;-50
2022/03/19 12:50:55;;;;;;;;;;;2.00;58.00;;;;;;5068930;27;87868;-48
2022/03/19 12:53:37;;;;;;;;;;;2.00;58.00;;;;;;5066195;27;86830;-49
2022/03/19 12:56:14;;;;;;;;;;;2.00;58.00;;;;;;5066597;27;88087;-51
2022/03/19 12:58:42;;;;;;;;;;;2.00;58.10;;;;;;5065752;27;88400;-49
2022/03/19 13:01:10;;;;;;;;;;;2.00;58.20;;;;;;5066252;27;86901;-49
2022/03/19 13:03:36;;;;;;;;;;;2.00;58.00;;;;;;5066008;27;87845;-48
2022/03/19 13:06:01;;;;;;;;;;;2.10;58.20;;;;;;5067549;27;87741;-51
2022/03/19 13:08:27;;;;;;;;;;;2.10;58.20;;;;;;5069968;27;87267;-49
2022/03/19 13:10:53;;;;;;;;;;;2.10;58.00;;;;;;5069698;27;86913;-51
2022/03/19 13:13:19;;;;;;;;;;;2.10;58.20;;;;;;5072219;27;88554;-49
2022/03/19 13:15:52;;;;;;;;;;;2.20;58.30;;;;;;5069601;27;87097;-49
2022/03/19 13:18:28;;;;;;;;;;;2.20;58.10;;;;;;5069259;27;86848;-49
2022/03/19 13:20:58;;;;;;;;;;;2.20;57.60;;;;;;5070135;27;86219;-50
2022/03/19 13:23:23;;;;;;;;;;;2.20;58.00;;;;;;5069743;27;87655;-50
2022/03/19 13:25:49;;;;;;;;;;;2.20;57.50;;;;;;5069531;27;87373;-49
2022/03/19 13:28:15;;;;;;;;;;;2.20;57.60;;;;;;5068973;27;88155;-49
2022/03/19 13:30:44;;;;;;;;;;;2.30;57.70;;;;;;5069456;27;87936;-49
2022/03/19 13:33:13;;;;;;;;;;;2.30;57.90;;;;;;5068881;27;88669;-49
2022/03/19 13:35:40;;;;;;;;;;;2.20;57.80;;;;;;5072268;27;86884;-50
2022/03/19 13:38:09;;;;;;;;;;;2.30;58.10;;;;;;5068897;27;88226;-50
2022/03/19 13:40:35;;;;;;;;;;;2.30;58.30;;;;;;5069454;27;86847;-50
2022/03/19 13:43:01;;;;;;;;;;;2.40;57.90;;;;;;5069564;27;87028;-50
2022/03/19 13:45:27;;;;;;;;;;;2.40;57.70;;;;;;5068974;27;86878;-49
2022/03/19 13:48:00;;;;;;;;;;;2.40;57.70;;;;;;5069222;27;87020;-49
2022/03/19 13:50:26;;;;;;;;;;;2.40;57.70;;;;;;5069025;27;87026;-50
2022/03/19 13:52:56;;;;;;;;;;;2.40;57.50;;;;;;5067875;27;89617;-49
2022/03/19 13:55:21;;;;;;;;;;;2.40;57.50;;;;;;5068936;27;86936;-48
2022/03/19 13:57:56;;;;;;;;;;;2.40;57.30;;;;;;5071834;27;86972;-50
2022/03/19 14:00:23;;;;;;;;;;;2.50;57.20;;;;;;5068707;27;86927;-49
2022/03/19 14:02:54;;;;;;;;;;;2.50;56.80;;;;;;5068878;27;88061;-50
2022/03/19 14:05:30;;;;;;;;;;;2.50;57.20;;;;;;5068564;27;88491;-48
2022/03/19 14:07:57;;;;;;;;;;;2.50;56.80;;;;;;5069069;27;86876;-49
2022/03/19 14:10:28;;;;;;;;;;;2.50;57.20;;;;;;5069215;27;88010;-48
2022/03/19 14:13:01;;;;;;;;;;;2.50;57.20;;;;;;5068252;27;88576;-52
2022/03/19 14:15:34;;;;;;;;;;;2.50;57.10;;;;;;5068810;27;86851;-51
2022/03/19 14:18:00;;;;;;;;;;;2.60;57.30;;;;;;5070117;27;88149;-49
2022/03/19 14:20:26;;;;;;;;;;;2.60;57.10;;;;;;5068571;27;86933;-49
2022/03/19 14:22:51;;;;;;;;;;;2.60;56.90;;;;;;5068500;27;88269;-49
2022/03/19 14:25:18;;;;;;;;;;;2.60;56.90;;;;;;5068532;27;86846;-52
2022/03/19 14:27:45;;;;;;;;;;;2.70;57.00;;;;;;5068246;27;87251;-49
2022/03/19 14:30:14;;;;;;;;;;;2.70;57.10;;;;;;5068520;27;87465;-49
2022/03/19 14:32:41;;;;;;;;;;;2.70;56.90;;;;;;5068178;27;88578;-49
2022/03/19 14:35:27;;;;;;;;;;;2.70;56.90;;;;;;5068836;27;86134;-49
2022/03/19 14:37:52;;;;;;;;;;;2.80;56.90;;;;;;5053996;27;86908;-51
2022/03/19 14:40:18;;;;;;;;;;;2.70;56.30;;;;;;5070854;27;88362;-48
2022/03/19 14:42:43;;;;;;;;;;;2.80;56.40;;;;;;5067586;27;87822;-48
2022/03/19 14:45:09;;;;;;;;;;;2.80;56.20;;;;;;5067645;27;87393;-49
2022/03/19 14:47:37;;;;;;;;;;;2.80;56.40;;;;;;5068347;27;86807;-51
2022/03/19 14:50:04;;;;;;;;;;;2.80;56.20;;;;;;5068185;27;87836;-50
2022/03/19 14:52:29;;;;;;;;;;;2.80;56.20;;;;;;5066834;27;87003;-49